North Yarmouth, Maine
Current Conditions -  °F | °C
As of 3:51 PM on Friday 28 Nov 2014 (Local Time) from KPWM Reporting Station
Broken Clouds Broken Clouds  
Wind Chill: 27°   Ceiling: 4800
Heat Index: 32°   Visibility: 10mi
Dew Point: 22°   Wind: 5mph
Humidity: 66%   Direction: 310°NW
Pressure: 30.06"   Gusts: NA
Location:  43.84°N, 70.23°W
Report Text: KPWM 282051Z 31004KT 10SM BKN048 00/M06 A3006 RMK AO2 SLP180 60000 T00001056 53007
Loading
Personal Weather Stations






























Interactive Weather Map New forecast layout! Learn more

10-Day Weather Forecast

Advertisements
Track Severe Weather on mobile